Aviation Digital Data Service (ADDS)

Output produced by METARs form (0448 UTC 31 October 2014)
found at http://aviationweather.gov/adds/metars/
 
KORH 302321Z 3100/3124 30005KT P6SM FEW040 
     FM310700 35004KT P6SM SKC 
     FM311600 05005KT P6SM BKN150